Time;durP1;ratioP1;P1;durP2;ratioP2;P2;SDS_P1;SDS_P2;PMS_P1;PMS_P2;Temp;Humidity;BMP_temperature;BMP_pressure;BME280_temperature;BME280_humidity;BME280_pressure;Samples;Min_cycle;Max_cycle;Signal;HPM_P1;HPM_P2
2021/07/27 00:00:54;;;;;;;;;;;16.90;1.00;;;;;;4990798;28;19924;-64
2021/07/27 00:03:20;;;;;;;;;;;16.80;1.00;;;;;;4991107;28;20418;-64
2021/07/27 00:05:45;;;;;;;;;;;16.80;1.00;;;;;;4991205;28;19918;-64
2021/07/27 00:08:11;;;;;;;;;;;16.80;1.00;;;;;;4990719;28;19965;-64
2021/07/27 00:10:38;;;;;;;;;;;16.80;1.00;;;;;;4991199;28;20293;-64
2021/07/27 00:13:06;;;;;;;;;;;16.80;1.00;;;;;;4991634;28;19917;-64
2021/07/27 00:15:32;;;;;;;;;;;16.80;1.00;;;;;;4990511;28;20364;-64
2021/07/27 00:17:58;;;;;;;;;;;16.80;1.00;;;;;;4990656;28;20009;-65
2021/07/27 00:20:24;;;;;;;;;;;16.80;1.00;;;;;;4990955;28;19929;-62
2021/07/27 00:22:49;;;;;;;;;;;16.70;1.00;;;;;;4991124;28;20314;-62
2021/07/27 00:25:15;;;;;;;;;;;16.70;1.00;;;;;;4990769;28;19917;-64
2021/07/27 00:27:41;;;;;;;;;;;16.80;1.00;;;;;;4990311;28;19917;-62
2021/07/27 00:30:07;;;;;;;;;;;16.80;1.00;;;;;;4990681;28;19910;-64
2021/07/27 00:32:39;;;;;;;;;;;16.70;1.00;;;;;;4991343;28;20355;-64
2021/07/27 00:35:05;;;;;;;;;;;16.70;1.00;;;;;;4991020;28;19913;-64
2021/07/27 00:37:33;;;;;;;;;;;16.70;1.00;;;;;;4990216;28;19994;-64
2021/07/27 00:39:58;;;;;;;;;;;16.70;1.00;;;;;;4990902;28;19909;-63
2021/07/27 00:42:24;;;;;;;;;;;16.70;1.00;;;;;;4990737;28;20415;-64
2021/07/27 00:44:49;;;;;;;;;;;16.70;1.00;;;;;;4990587;28;19910;-64
2021/07/27 00:47:15;;;;;;;;;;;16.70;1.00;;;;;;4990174;28;19909;-64
2021/07/27 00:49:40;;;;;;;;;;;16.70;1.00;;;;;;4991198;28;19956;-64
2021/07/27 00:52:07;;;;;;;;;;;16.70;1.00;;;;;;4994527;28;19945;-63
2021/07/27 00:54:33;;;;;;;;;;;16.70;1.00;;;;;;4994437;28;19966;-64
2021/07/27 00:56:59;;;;;;;;;;;16.80;1.00;;;;;;4994364;28;19910;-64
2021/07/27 00:59:26;;;;;;;;;;;16.80;1.00;;;;;;4993418;28;20389;-64
2021/07/27 01:01:51;;;;;;;;;;;16.80;1.00;;;;;;5000585;28;19910;-63
2021/07/27 01:04:17;;;;;;;;;;;16.80;1.00;;;;;;4997584;28;20294;-64
2021/07/27 01:06:42;;;;;;;;;;;16.80;1.00;;;;;;4995919;28;19921;-64
2021/07/27 01:09:08;;;;;;;;;;;16.80;1.00;;;;;;4996623;28;19910;-63
2021/07/27 01:11:39;;;;;;;;;;;16.80;1.00;;;;;;4995397;28;19910;-64
2021/07/27 01:14:04;;;;;;;;;;;16.90;1.00;;;;;;4994807;28;19965;-63
2021/07/27 01:16:34;;;;;;;;;;;17.00;1.00;;;;;;4992403;28;20007;-63
2021/07/27 01:43:45;;;;;;;;;;;16.20;1.00;;;;;;4993581;28;19919;-63
2021/07/27 01:46:12;;;;;;;;;;;16.10;1.00;;;;;;4992630;28;19916;-63
2021/07/27 01:48:38;;;;;;;;;;;16.10;1.00;;;;;;4992841;28;19910;-63
2021/07/27 01:51:03;;;;;;;;;;;16.10;1.00;;;;;;4993368;28;20385;-63
2021/07/27 01:53:38;;;;;;;;;;;16.00;1.00;;;;;;4993236;28;20453;-63
2021/07/27 01:56:04;;;;;;;;;;;16.00;1.00;;;;;;4992767;28;20279;-63
2021/07/27 01:58:30;;;;;;;;;;;16.00;1.00;;;;;;4992652;28;19917;-63
2021/07/27 02:00:55;;;;;;;;;;;16.00;1.00;;;;;;4992818;28;20467;-64
2021/07/27 02:03:23;;;;;;;;;;;15.90;1.00;;;;;;4992848;28;19910;-63
2021/07/27 02:05:49;;;;;;;;;;;15.90;1.00;;;;;;4993025;28;19914;-62
2021/07/27 02:08:14;;;;;;;;;;;15.90;1.00;;;;;;4992139;28;19914;-63
2021/07/27 02:10:43;;;;;;;;;;;15.90;1.00;;;;;;4993346;28;20449;-63
2021/07/27 02:13:13;;;;;;;;;;;15.90;1.00;;;;;;4993139;28;19909;-63
2021/07/27 02:15:42;;;;;;;;;;;15.90;1.00;;;;;;4991188;28;20438;-63
2021/07/27 02:18:08;;;;;;;;;;;16.00;1.00;;;;;;4992684;28;20275;-63
2021/07/27 02:20:34;;;;;;;;;;;15.90;1.00;;;;;;4993104;28;19964;-63
2021/07/27 02:22:59;;;;;;;;;;;15.90;1.00;;;;;;4992843;28;20318;-63
2021/07/27 02:25:25;;;;;;;;;;;16.00;1.00;;;;;;4992523;28;19921;-63
2021/07/27 02:27:50;;;;;;;;;;;16.00;1.00;;;;;;4991953;28;19918;-63
2021/07/27 02:30:16;;;;;;;;;;;16.00;1.00;;;;;;4990622;28;20398;-64
2021/07/27 02:32:43;;;;;;;;;;;16.00;1.00;;;;;;4992727;28;19909;-63
2021/07/27 02:35:09;;;;;;;;;;;16.00;1.00;;;;;;4992311;28;19921;-63
2021/07/27 02:37:35;;;;;;;;;;;15.90;1.00;;;;;;4991782;28;19918;-64
2021/07/27 02:40:00;;;;;;;;;;;16.00;1.00;;;;;;4992682;28;20004;-64
2021/07/27 02:42:26;;;;;;;;;;;16.00;1.00;;;;;;4992266;28;19910;-63
2021/07/27 02:44:52;;;;;;;;;;;16.00;1.00;;;;;;4992045;28;19913;-63
2021/07/27 02:47:17;;;;;;;;;;;16.00;1.00;;;;;;4991748;28;19937;-64
2021/07/27 02:49:43;;;;;;;;;;;16.10;1.00;;;;;;4992315;28;19921;-63
2021/07/27 02:52:08;;;;;;;;;;;16.10;1.00;;;;;;4992412;28;20284;-63
2021/07/27 02:54:37;;;;;;;;;;;16.10;1.00;;;;;;4992258;28;19918;-62
2021/07/27 02:57:03;;;;;;;;;;;16.10;1.00;;;;;;4992271;28;19969;-63
2021/07/27 02:59:28;;;;;;;;;;;16.10;1.00;;;;;;4991114;28;19925;-63
2021/07/27 03:01:54;;;;;;;;;;;16.00;1.00;;;;;;4992073;28;20369;-63
2021/07/27 03:04:19;;;;;;;;;;;15.90;1.00;;;;;;4990464;28;19921;-63
2021/07/27 03:06:47;;;;;;;;;;;15.90;1.00;;;;;;4991724;28;19925;-63
2021/07/27 03:09:16;;;;;;;;;;;15.80;1.00;;;;;;4991117;28;19949;-63
2021/07/27 03:11:42;;;;;;;;;;;15.80;1.00;;;;;;4992267;28;20077;-63
2021/07/27 03:14:07;;;;;;;;;;;15.80;1.00;;;;;;4991696;28;19909;-63
2021/07/27 03:16:33;;;;;;;;;;;15.80;1.00;;;;;;4992056;28;20000;-64
2021/07/27 03:18:59;;;;;;;;;;;15.80;1.00;;;;;;4991159;28;19910;-63
2021/07/27 03:21:26;;;;;;;;;;;15.80;1.00;;;;;;4991695;28;19914;-63
2021/07/27 03:23:52;;;;;;;;;;;15.70;1.00;;;;;;4992135;28;19910;-63
2021/07/27 03:26:18;;;;;;;;;;;15.70;1.00;;;;;;4991366;28;19933;-64
2021/07/27 03:28:44;;;;;;;;;;;15.70;1.00;;;;;;4990711;28;19925;-64
2021/07/27 03:31:10;;;;;;;;;;;15.80;1.00;;;;;;4991508;28;19913;-63
2021/07/27 03:33:35;;;;;;;;;;;15.80;1.00;;;;;;4991655;28;20032;-63
2021/07/27 03:36:01;;;;;;;;;;;15.80;1.00;;;;;;4991439;28;19910;-63
2021/07/27 03:38:26;;;;;;;;;;;15.80;1.00;;;;;;4990664;28;19910;-63
2021/07/27 03:41:01;;;;;;;;;;;15.80;1.00;;;;;;4991089;28;20371;-64
2021/07/27 03:43:26;;;;;;;;;;;15.90;1.00;;;;;;4991362;28;19910;-64
2021/07/27 03:45:52;;;;;;;;;;;15.90;1.00;;;;;;4990843;28;19922;-64
2021/07/27 03:48:17;;;;;;;;;;;16.00;1.00;;;;;;4990557;28;19910;-63
2021/07/27 03:50:43;;;;;;;;;;;16.00;1.00;;;;;;4991136;28;19980;-63
2021/07/27 03:53:16;;;;;;;;;;;16.00;1.00;;;;;;4991033;28;20032;-64
2021/07/27 03:55:42;;;;;;;;;;;16.00;1.00;;;;;;4991071;28;19964;-63
2021/07/27 03:58:07;;;;;;;;;;;16.00;1.00;;;;;;4990437;28;19953;-63
2021/07/27 04:00:33;;;;;;;;;;;16.00;1.00;;;;;;4990702;28;20177;-63
2021/07/27 04:03:01;;;;;;;;;;;16.00;1.00;;;;;;4991130;28;19914;-64
2021/07/27 04:05:27;;;;;;;;;;;16.00;1.00;;;;;;4991096;28;19914;-64
2021/07/27 04:07:52;;;;;;;;;;;16.10;1.00;;;;;;4990372;28;19921;-63
2021/07/27 04:10:18;;;;;;;;;;;16.10;1.00;;;;;;4991094;28;19910;-63
2021/07/27 04:12:43;;;;;;;;;;;16.10;1.00;;;;;;4991079;28;19914;-63
2021/07/27 04:15:09;;;;;;;;;;;16.10;1.00;;;;;;4990685;28;19922;-63
2021/07/27 04:17:34;;;;;;;;;;;16.20;1.00;;;;;;4990061;28;19960;-64
2021/07/27 04:20:00;;;;;;;;;;;16.20;1.00;;;;;;4991100;28;19917;-64
2021/07/27 04:22:25;;;;;;;;;;;16.30;1.00;;;;;;4990997;28;20291;-63
2021/07/27 04:24:51;;;;;;;;;;;16.20;1.00;;;;;;4991693;28;19914;-64
2021/07/27 04:27:16;;;;;;;;;;;16.20;1.00;;;;;;4994365;28;19921;-64
2021/07/27 04:29:43;;;;;;;;;;;16.20;1.00;;;;;;4994255;28;19937;-63
2021/07/27 04:32:09;;;;;;;;;;;16.30;1.00;;;;;;4994749;28;20263;-64
2021/07/27 04:34:34;;;;;;;;;;;16.30;1.00;;;;;;4994553;28;19924;-63
2021/07/27 04:37:00;;;;;;;;;;;16.40;1.00;;;;;;4994645;28;19958;-63
2021/07/27 04:39:29;;;;;;;;;;;16.40;1.00;;;;;;4993569;28;19957;-64
2021/07/27 04:41:54;;;;;;;;;;;16.40;1.00;;;;;;4995080;28;19981;-64
2021/07/27 04:44:19;;;;;;;;;;;16.40;1.00;;;;;;4994141;28;20008;-65
2021/07/27 04:46:47;;;;;;;;;;;16.50;1.00;;;;;;4994737;28;19973;-64
2021/07/27 04:49:13;;;;;;;;;;;16.60;1.00;;;;;;4993866;28;19916;-65
2021/07/27 04:51:38;;;;;;;;;;;16.50;1.00;;;;;;4994266;28;19914;-64
2021/07/27 04:54:05;;;;;;;;;;;16.50;1.00;;;;;;4994453;28;19914;-65
2021/07/27 04:56:31;;;;;;;;;;;16.50;1.00;;;;;;4994572;28;20291;-65
2021/07/27 04:58:56;;;;;;;;;;;16.50;1.00;;;;;;4994197;28;19910;-65
2021/07/27 05:01:22;;;;;;;;;;;16.70;1.00;;;;;;4993613;28;20330;-64
2021/07/27 05:03:47;;;;;;;;;;;17.10;1.00;;;;;;4994204;28;19945;-64
2021/07/27 05:06:13;;;;;;;;;;;17.80;1.00;;;;;;4993980;28;19924;-64
2021/07/27 05:08:42;;;;;;;;;;;18.30;1.00;;;;;;4993731;28;20426;-64
2021/07/27 05:11:07;;;;;;;;;;;19.00;1.00;;;;;;4994279;28;20395;-64
2021/07/27 05:13:32;;;;;;;;;;;19.70;99.90;;;;;;4993935;28;19917;-65
2021/07/27 05:16:01;;;;;;;;;;;20.30;1.00;;;;;;4993582;28;19910;-65
2021/07/27 05:18:26;;;;;;;;;;;20.80;91.30;;;;;;4993504;28;19910;-65
2021/07/27 05:20:52;;;;;;;;;;;21.10;1.00;;;;;;4993897;28;19928;-64
2021/07/27 05:23:17;;;;;;;;;;;21.20;1.00;;;;;;4994121;28;19913;-65
2021/07/27 05:25:43;;;;;;;;;;;21.10;1.00;;;;;;4993554;28;20291;-65
2021/07/27 05:28:09;;;;;;;;;;;20.90;1.00;;;;;;4993069;28;19918;-64
2021/07/27 05:30:34;;;;;;;;;;;20.50;1.00;;;;;;4992968;28;19945;-65
2021/07/27 05:33:01;;;;;;;;;;;20.40;1.00;;;;;;4993828;28;19914;-65
2021/07/27 05:35:27;;;;;;;;;;;20.60;1.00;;;;;;4993357;28;19941;-64
2021/07/27 05:37:52;;;;;;;;;;;20.70;99.90;;;;;;4991637;28;20362;-65
2021/07/27 05:40:18;;;;;;;;;;;20.70;99.90;;;;;;4993325;28;19946;-65
2021/07/27 05:42:43;;;;;;;;;;;20.60;99.90;;;;;;4993341;28;19922;-64
2021/07/27 05:45:09;;;;;;;;;;;20.50;99.90;;;;;;4992768;28;20012;-64
2021/07/27 05:47:35;;;;;;;;;;;20.40;1.00;;;;;;4992784;28;19913;-65
2021/07/27 05:50:00;;;;;;;;;;;20.40;99.90;;;;;;4993154;28;20446;-65
2021/07/27 05:52:26;;;;;;;;;;;20.30;99.90;;;;;;4993585;28;19910;-64
2021/07/27 05:54:51;;;;;;;;;;;20.20;1.00;;;;;;4993337;28;19910;-65
2021/07/27 05:57:17;;;;;;;;;;;20.20;1.00;;;;;;4992814;28;19910;-64
2021/07/27 05:59:43;;;;;;;;;;;20.20;1.00;;;;;;4991190;28;19917;-64
2021/07/27 06:02:09;;;;;;;;;;;20.10;99.90;;;;;;4993195;28;19909;-65
2021/07/27 06:04:35;;;;;;;;;;;20.10;99.90;;;;;;4993156;28;19925;-64
2021/07/27 06:07:03;;;;;;;;;;;20.10;99.90;;;;;;4993288;28;19910;-65
2021/07/27 06:09:28;;;;;;;;;;;20.00;1.00;;;;;;4991248;28;19910;-65
2021/07/27 06:11:54;;;;;;;;;;;20.20;1.00;;;;;;4992693;28;19925;-63
2021/07/27 06:14:19;;;;;;;;;;;20.30;99.90;;;;;;4992536;28;20343;-65
2021/07/27 06:16:45;;;;;;;;;;;20.40;99.90;;;;;;4992808;28;19914;-64
2021/07/27 06:19:10;;;;;;;;;;;20.30;99.90;;;;;;4992208;28;19934;-63
2021/07/27 06:21:38;;;;;;;;;;;20.30;1.00;;;;;;4993060;28;20335;-64
2021/07/27 06:24:04;;;;;;;;;;;20.10;1.00;;;;;;4992438;28;19909;-64
2021/07/27 06:26:30;;;;;;;;;;;19.80;99.90;;;;;;4991148;28;19918;-64
2021/07/27 06:28:55;;;;;;;;;;;19.60;1.00;;;;;;4991998;28;20264;-63
2021/07/27 06:31:21;;;;;;;;;;;19.70;76.10;;;;;;4992251;28;19910;-64
2021/07/27 06:33:46;;;;;;;;;;;19.80;1.00;;;;;;4992734;28;20374;-64
2021/07/27 06:36:12;;;;;;;;;;;19.80;1.00;;;;;;4992409;28;19910;-63
2021/07/27 06:38:38;;;;;;;;;;;19.80;1.00;;;;;;4991592;28;20008;-64
2021/07/27 06:41:10;;;;;;;;;;;19.90;1.00;;;;;;4992499;28;20109;-63
2021/07/27 06:43:36;;;;;;;;;;;19.30;99.90;;;;;;4992526;28;20239;-64
2021/07/27 06:46:02;;;;;;;;;;;19.40;1.00;;;;;;4991968;28;20331;-64
2021/07/27 06:48:27;;;;;;;;;;;19.50;1.00;;;;;;4991472;28;19910;-63
2021/07/27 06:50:53;;;;;;;;;;;19.60;99.90;;;;;;4992787;28;19917;-65
2021/07/27 06:53:18;;;;;;;;;;;19.80;99.90;;;;;;4992431;28;20267;-63
2021/07/27 06:55:44;;;;;;;;;;;20.10;5.50;;;;;;4992148;28;19917;-63
2021/07/27 06:58:10;;;;;;;;;;;20.60;1.00;;;;;;4991308;28;19913;-64
2021/07/27 07:00:36;;;;;;;;;;;20.80;1.00;;;;;;4991417;28;20385;-63
2021/07/27 07:03:01;;;;;;;;;;;20.90;1.00;;;;;;4992122;28;20429;-64
2021/07/27 07:05:27;;;;;;;;;;;21.10;99.90;;;;;;4991778;28;19920;-63
2021/07/27 07:07:52;;;;;;;;;;;21.60;1.00;;;;;;4991086;28;20278;-64
2021/07/27 07:10:18;;;;;;;;;;;22.00;1.00;;;;;;4992098;28;19909;-64
2021/07/27 07:12:44;;;;;;;;;;;22.30;99.90;;;;;;4991585;28;19925;-64
2021/07/27 07:15:09;;;;;;;;;;;22.60;73.10;;;;;;4991504;28;20327;-63
2021/07/27 07:17:35;;;;;;;;;;;22.50;1.00;;;;;;4991089;28;19914;-64
2021/07/27 07:20:00;;;;;;;;;;;22.90;1.00;;;;;;4991925;28;19914;-64
2021/07/27 07:22:26;;;;;;;;;;;23.20;99.90;;;;;;4991213;28;19917;-64
2021/07/27 07:24:52;;;;;;;;;;;23.20;99.90;;;;;;4991704;28;20005;-64
2021/07/27 07:27:17;;;;;;;;;;;23.70;99.90;;;;;;4990906;28;19924;-65
2021/07/27 07:29:43;;;;;;;;;;;23.70;99.90;;;;;;4991264;28;20337;-64
2021/07/27 07:32:08;;;;;;;;;;;24.00;27.30;;;;;;4991934;28;20243;-64
2021/07/27 07:34:34;;;;;;;;;;;24.20;1.00;;;;;;4991053;28;19937;-65
2021/07/27 07:37:00;;;;;;;;;;;24.60;1.00;;;;;;4991521;28;20393;-64
2021/07/27 07:39:29;;;;;;;;;;;25.40;1.00;;;;;;4991244;28;19910;-64
2021/07/27 07:41:54;;;;;;;;;;;26.30;1.00;;;;;;4991465;28;19914;-64
2021/07/27 07:44:20;;;;;;;;;;;26.70;1.00;;;;;;4990976;28;19914;-64
2021/07/27 07:46:45;;;;;;;;;;;28.40;99.90;;;;;;4991091;28;19909;-65
2021/07/27 07:49:11;;;;;;;;;;;30.30;99.90;;;;;;4990672;28;19910;-64
2021/07/27 07:51:44;;;;;;;;;;;31.40;99.90;;;;;;4991265;28;20366;-64
2021/07/27 07:54:09;;;;;;;;;;;32.80;99.90;;;;;;4991185;28;20334;-64
2021/07/27 07:56:35;;;;;;;;;;;33.40;99.90;;;;;;4991033;28;20160;-65
2021/07/27 07:59:00;;;;;;;;;;;34.10;99.90;;;;;;4989958;28;19916;-66
2021/07/27 08:01:26;;;;;;;;;;;35.60;99.90;;;;;;4990372;28;19933;-65
2021/07/27 08:03:51;;;;;;;;;;;36.40;99.90;;;;;;4991224;28;19914;-65
2021/07/27 08:06:17;;;;;;;;;;;37.20;99.90;;;;;;4991174;28;19918;-65
2021/07/27 08:08:42;;;;;;;;;;;37.70;99.90;;;;;;4990265;28;20033;-65
2021/07/27 08:11:09;;;;;;;;;;;37.90;99.90;;;;;;4990456;28;19910;-65
2021/07/27 08:13:34;;;;;;;;;;;38.60;99.90;;;;;;4991278;28;19914;-65
2021/07/27 08:16:00;;;;;;;;;;;39.50;99.90;;;;;;4990654;28;20316;-65
2021/07/27 08:18:25;;;;;;;;;;;40.10;99.90;;;;;;4990233;28;19972;-65
2021/07/27 08:20:51;;;;;;;;;;;40.50;99.90;;;;;;4990494;28;19917;-65
2021/07/27 08:23:17;;;;;;;;;;;40.90;99.90;;;;;;4990973;28;19917;-65
2021/07/27 08:25:42;;;;;;;;;;;41.50;99.90;;;;;;4990818;28;19914;-66
2021/07/27 08:28:08;;;;;;;;;;;41.80;99.90;;;;;;4990373;28;20331;-65
2021/07/27 08:30:33;;;;;;;;;;;41.90;99.90;;;;;;4990546;28;20243;-66
2021/07/27 08:32:59;;;;;;;;;;;41.40;99.90;;;;;;4990831;28;19932;-65
2021/07/27 08:35:24;;;;;;;;;;;39.50;99.90;;;;;;4991130;28;19910;-65
2021/07/27 08:37:50;;;;;;;;;;;39.30;99.90;;;;;;4990090;28;19910;-65
2021/07/27 08:40:17;;;;;;;;;;;39.10;99.90;;;;;;4990814;28;19913;-65
2021/07/27 08:42:44;;;;;;;;;;;37.60;99.90;;;;;;4991054;28;19914;-65
2021/07/27 08:45:11;;;;;;;;;;;38.30;99.90;;;;;;4990446;28;19953;-66
2021/07/27 08:47:36;;;;;;;;;;;38.50;99.90;;;;;;4990075;28;19964;-64
2021/07/27 08:50:03;;;;;;;;;;;39.60;99.90;;;;;;4990763;28;19911;-65
2021/07/27 08:52:28;;;;;;;;;;;41.00;99.90;;;;;;4990627;28;19941;-65
2021/07/27 08:54:54;;;;;;;;;;;41.70;99.90;;;;;;4990612;28;19953;-65
2021/07/27 08:57:20;;;;;;;;;;;41.20;99.90;;;;;;4989917;28;20350;-65
2021/07/27 08:59:46;;;;;;;;;;;40.10;99.90;;;;;;4990108;28;20370;-65
2021/07/27 09:02:12;;;;;;;;;;;39.30;99.90;;;;;;4990596;28;19910;-65
2021/07/27 09:04:37;;;;;;;;;;;39.80;99.90;;;;;;4990425;28;19921;-65
2021/07/27 09:07:03;;;;;;;;;;;40.80;99.90;;;;;;4990489;28;19911;-65
2021/07/27 09:09:30;;;;;;;;;;;42.40;99.90;;;;;;4989690;28;20232;-65
2021/07/27 09:11:56;;;;;;;;;;;43.60;99.90;;;;;;4992879;28;20330;-65
2021/07/27 09:14:25;;;;;;;;;;;44.50;99.90;;;;;;4993801;28;19933;-65
2021/07/27 09:16:52;;;;;;;;;;;44.60;94.30;;;;;;4994011;28;19910;-65
2021/07/27 09:19:18;;;;;;;;;;;44.90;91.60;;;;;;4993018;28;19910;-65
2021/07/27 09:21:45;;;;;;;;;;;44.50;79.60;;;;;;4993991;28;19918;-65
2021/07/27 09:24:11;;;;;;;;;;;43.20;66.80;;;;;;4993527;28;20359;-66
2021/07/27 09:26:37;;;;;;;;;;;41.40;58.70;;;;;;4992112;28;19928;-66
2021/07/27 09:29:03;;;;;;;;;;;41.60;56.80;;;;;;4993082;28;19917;-65
2021/07/27 09:31:29;;;;;;;;;;;40.70;52.70;;;;;;4992961;28;19933;-66
2021/07/27 09:33:54;;;;;;;;;;;39.80;64.50;;;;;;4993858;28;19910;-66
2021/07/27 09:36:25;;;;;;;;;;;39.40;50.30;;;;;;4993431;28;20000;-65
2021/07/27 09:39:04;;;;;;;;;;;38.40;49.40;;;;;;4993276;28;20000;-65
2021/07/27 09:41:30;;;;;;;;;;;38.60;50.90;;;;;;4994704;28;20438;-65
2021/07/27 09:43:58;;;;;;;;;;;39.40;51.10;;;;;;4995644;28;19957;-65
2021/07/27 09:46:25;;;;;;;;;;;40.10;50.90;;;;;;4995225;28;20224;-65
2021/07/27 09:48:51;;;;;;;;;;;40.40;50.20;;;;;;4995428;28;19909;-65
2021/07/27 09:51:17;;;;;;;;;;;41.00;49.80;;;;;;4995606;28;19977;-65
2021/07/27 09:53:44;;;;;;;;;;;42.50;49.00;;;;;;4995227;28;19917;-66
2021/07/27 09:56:09;;;;;;;;;;;44.10;49.80;;;;;;4994268;28;19918;-66
2021/07/27 09:58:35;;;;;;;;;;;45.50;47.40;;;;;;4993018;28;19910;-66
2021/07/27 10:01:11;;;;;;;;;;;46.00;43.50;;;;;;4992958;28;19910;-63
2021/07/27 10:03:43;;;;;;;;;;;45.60;36.00;;;;;;4993301;28;19914;-65
2021/07/27 10:06:09;;;;;;;;;;;44.30;29.80;;;;;;4993266;28;19910;-65
2021/07/27 10:08:36;;;;;;;;;;;42.30;25.10;;;;;;4992976;28;19964;-65
2021/07/27 10:11:09;;;;;;;;;;;42.00;24.20;;;;;;4993240;28;19929;-65
2021/07/27 10:13:35;;;;;;;;;;;42.60;24.00;;;;;;4993337;28;20004;-65
2021/07/27 10:16:01;;;;;;;;;;;42.30;23.10;;;;;;4990828;28;20358;-65
2021/07/27 10:18:30;;;;;;;;;;;42.70;22.60;;;;;;4992439;28;19992;-66
2021/07/27 10:21:14;;;;;;;;;;;43.30;22.60;;;;;;4993174;28;20267;-66
2021/07/27 10:23:39;;;;;;;;;;;43.00;20.90;;;;;;4991630;28;19937;-66
2021/07/27 10:26:05;;;;;;;;;;;43.80;20.30;;;;;;4992897;28;19926;-66
2021/07/27 10:28:30;;;;;;;;;;;44.30;19.50;;;;;;4992915;28;19917;-66
2021/07/27 10:31:06;;;;;;;;;;;43.80;17.80;;;;;;4992812;28;20389;-66
2021/07/27 10:33:32;;;;;;;;;;;43.40;15.30;;;;;;4992674;28;19910;-65
2021/07/27 10:35:57;;;;;;;;;;;42.50;14.30;;;;;;4992480;28;20346;-65
2021/07/27 10:38:38;;;;;;;;;;;41.80;12.70;;;;;;4991616;28;20308;-65
2021/07/27 10:41:17;;;;;;;;;;;40.90;12.30;;;;;;4992592;28;20398;-65
2021/07/27 10:43:42;;;;;;;;;;;40.80;13.50;;;;;;4992636;28;19957;-66
2021/07/27 10:46:10;;;;;;;;;;;41.10;13.60;;;;;;4992671;28;19909;-65
2021/07/27 10:48:37;;;;;;;;;;;41.00;13.80;;;;;;4992111;28;20434;-65
2021/07/27 10:51:02;;;;;;;;;;;40.80;13.40;;;;;;4992738;28;19952;-65
2021/07/27 10:53:30;;;;;;;;;;;41.30;14.60;;;;;;4992458;28;20285;-65
2021/07/27 10:55:58;;;;;;;;;;;42.00;14.70;;;;;;4992262;28;20800;-65
2021/07/27 10:58:23;;;;;;;;;;;42.10;15.00;;;;;;4992730;28;20095;-65
2021/07/27 11:00:49;;;;;;;;;;;41.10;13.90;;;;;;4992738;28;20282;-65
2021/07/27 11:03:25;;;;;;;;;;;40.70;13.80;;;;;;4994156;28;19910;-65
2021/07/27 11:05:58;;;;;;;;;;;39.60;14.00;;;;;;4993591;28;19909;-65
2021/07/27 11:08:23;;;;;;;;;;;38.90;14.80;;;;;;4993694;28;20291;-65
2021/07/27 11:10:49;;;;;;;;;;;38.80;16.10;;;;;;4994240;28;19955;-65
2021/07/27 11:13:14;;;;;;;;;;;38.80;16.60;;;;;;4993813;28;19909;-65
2021/07/27 11:15:40;;;;;;;;;;;38.60;17.30;;;;;;4992353;28;19913;-65
2021/07/27 11:18:05;;;;;;;;;;;38.20;18.20;;;;;;4991793;28;19914;-65
2021/07/27 11:20:31;;;;;;;;;;;37.70;19.50;;;;;;4992408;28;19910;-65
2021/07/27 11:22:57;;;;;;;;;;;35.60;19.60;;;;;;4991953;28;19914;-65
2021/07/27 11:25:24;;;;;;;;;;;34.10;21.20;;;;;;4991891;28;20271;-65
2021/07/27 11:27:50;;;;;;;;;;;32.70;23.60;;;;;;4991011;28;19918;-64
2021/07/27 11:30:16;;;;;;;;;;;31.50;26.20;;;;;;4990930;28;19916;-65
2021/07/27 11:32:51;;;;;;;;;;;31.60;30.50;;;;;;4992068;28;20355;-65
2021/07/27 11:35:17;;;;;;;;;;;31.40;34.10;;;;;;4990525;28;19964;-66
2021/07/27 11:37:43;;;;;;;;;;;31.40;37.10;;;;;;4991205;28;19933;-66
2021/07/27 11:40:25;;;;;;;;;;;31.40;40.60;;;;;;4991359;28;19964;-65
2021/07/27 11:43:00;;;;;;;;;;;31.70;44.50;;;;;;4991451;28;19977;-64
2021/07/27 11:45:25;;;;;;;;;;;32.10;47.00;;;;;;4990999;28;20000;-64
2021/07/27 11:47:51;;;;;;;;;;;32.50;51.00;;;;;;4990745;28;20408;-64
2021/07/27 11:50:33;;;;;;;;;;;32.70;52.90;;;;;;4991381;28;20264;-64
2021/07/27 11:53:02;;;;;;;;;;;32.70;54.00;;;;;;4991568;28;19935;-65
2021/07/27 11:55:38;;;;;;;;;;;32.80;55.80;;;;;;4991020;28;19965;-65
2021/07/27 11:58:04;;;;;;;;;;;32.70;57.30;;;;;;4990426;28;19917;-64
2021/07/27 12:00:33;;;;;;;;;;;32.40;59.00;;;;;;4990659;28;20382;-64
2021/07/27 12:02:59;;;;;;;;;;;32.20;60.00;;;;;;4991230;28;19916;-64
2021/07/27 12:05:25;;;;;;;;;;;32.00;61.90;;;;;;4991110;28;19910;-64
2021/07/27 12:07:50;;;;;;;;;;;31.80;65.30;;;;;;4990399;28;19910;-64
2021/07/27 12:10:16;;;;;;;;;;;31.50;67.10;;;;;;4990703;28;19910;-64
2021/07/27 12:12:44;;;;;;;;;;;31.70;73.20;;;;;;4990967;28;20279;-64
2021/07/27 12:15:15;;;;;;;;;;;32.20;74.80;;;;;;4990660;28;19960;-64
2021/07/27 12:17:41;;;;;;;;;;;32.30;75.30;;;;;;4990704;28;19929;-64
2021/07/27 12:20:07;;;;;;;;;;;32.30;77.80;;;;;;4991879;28;19910;-65
2021/07/27 12:22:33;;;;;;;;;;;32.30;78.80;;;;;;4990953;28;19921;-63
2021/07/27 12:24:58;;;;;;;;;;;32.30;79.60;;;;;;4991255;28;19913;-64
2021/07/27 12:27:24;;;;;;;;;;;32.60;82.10;;;;;;4990151;28;20398;-64
2021/07/27 12:29:49;;;;;;;;;;;32.70;84.20;;;;;;4990956;28;20386;-65
2021/07/27 12:32:15;;;;;;;;;;;32.90;83.40;;;;;;4990782;28;19909;-65
2021/07/27 12:34:40;;;;;;;;;;;32.90;84.40;;;;;;4990470;28;20367;-65
2021/07/27 12:37:06;;;;;;;;;;;32.60;84.30;;;;;;4990877;28;19910;-65
2021/07/27 12:39:31;;;;;;;;;;;32.50;86.00;;;;;;4990138;28;19909;-65
2021/07/27 12:41:57;;;;;;;;;;;32.30;87.40;;;;;;4990714;28;20279;-65
2021/07/27 12:44:22;;;;;;;;;;;31.60;86.90;;;;;;4990438;28;20332;-65
2021/07/27 12:46:49;;;;;;;;;;;31.10;88.20;;;;;;4992558;28;20008;-64
2021/07/27 12:49:16;;;;;;;;;;;30.70;90.50;;;;;;4993901;28;19909;-64
2021/07/27 12:51:42;;;;;;;;;;;30.10;91.30;;;;;;4994149;28;19964;-64
2021/07/27 12:54:08;;;;;;;;;;;29.40;92.60;;;;;;4994100;28;20025;-65
2021/07/27 12:56:35;;;;;;;;;;;28.30;94.70;;;;;;4994036;28;20024;-65
2021/07/27 12:59:00;;;;;;;;;;;28.30;96.80;;;;;;4993617;28;20355;-65
2021/07/27 13:01:26;;;;;;;;;;;28.40;98.60;;;;;;4993512;28;19936;-65
2021/07/27 13:03:51;;;;;;;;;;;28.20;99.90;;;;;;4994397;28;20383;-64
2021/07/27 13:06:17;;;;;;;;;;;28.20;99.90;;;;;;4994313;28;19910;-64
2021/07/27 13:08:42;;;;;;;;;;;28.40;99.90;;;;;;4993266;28;20323;-65
2021/07/27 13:11:09;;;;;;;;;;;28.30;99.90;;;;;;4993607;28;19957;-64
2021/07/27 13:13:35;;;;;;;;;;;28.60;99.90;;;;;;4993988;28;19916;-65
2021/07/27 13:16:00;;;;;;;;;;;28.80;99.90;;;;;;4993708;28;20008;-67
2021/07/27 13:18:26;;;;;;;;;;;28.90;99.90;;;;;;4993288;28;20326;-64
2021/07/27 13:20:51;;;;;;;;;;;28.20;99.90;;;;;;4993743;28;19996;-65
2021/07/27 13:23:17;;;;;;;;;;;28.40;99.90;;;;;;4993946;28;19910;-65
2021/07/27 13:25:42;;;;;;;;;;;27.80;99.90;;;;;;4993512;28;20228;-65
2021/07/27 13:28:08;;;;;;;;;;;27.90;99.90;;;;;;4992783;28;19926;-66
2021/07/27 13:30:33;;;;;;;;;;;27.80;99.90;;;;;;4993161;28;20262;-65
2021/07/27 13:32:59;;;;;;;;;;;27.90;99.90;;;;;;4993386;28;19910;-66
2021/07/27 13:35:24;;;;;;;;;;;28.20;99.90;;;;;;4993375;28;19914;-66
2021/07/27 13:37:50;;;;;;;;;;;28.30;99.90;;;;;;4992652;28;19910;-65
2021/07/27 13:40:15;;;;;;;;;;;28.60;99.90;;;;;;4993159;28;19972;-65
2021/07/27 13:42:41;;;;;;;;;;;29.00;99.90;;;;;;4993349;28;20013;-65
2021/07/27 13:45:06;;;;;;;;;;;29.40;99.90;;;;;;4992845;28;20269;-66
2021/07/27 13:47:33;;;;;;;;;;;29.20;99.90;;;;;;4992582;28;20483;-66
2021/07/27 13:49:59;;;;;;;;;;;29.20;99.90;;;;;;4993336;28;19976;-66
2021/07/27 13:52:24;;;;;;;;;;;29.30;99.90;;;;;;4993204;28;19984;-66
2021/07/27 13:54:50;;;;;;;;;;;29.50;99.90;;;;;;4993244;28;20467;-66
2021/07/27 13:57:16;;;;;;;;;;;28.60;99.90;;;;;;4991474;28;19910;-66
2021/07/27 13:59:41;;;;;;;;;;;28.00;99.90;;;;;;4992513;28;19917;-65
2021/07/27 14:02:07;;;;;;;;;;;27.60;99.90;;;;;;4993460;28;20359;-65
2021/07/27 14:04:32;;;;;;;;;;;27.50;99.90;;;;;;4993185;28;19910;-65
2021/07/27 14:06:58;;;;;;;;;;;27.50;99.90;;;;;;4992990;28;19910;-65
2021/07/27 14:09:24;;;;;;;;;;;28.00;99.90;;;;;;4992315;28;20017;-65
2021/07/27 14:11:49;;;;;;;;;;;28.60;99.90;;;;;;4993091;28;19977;-65
2021/07/27 14:14:15;;;;;;;;;;;28.80;99.90;;;;;;4992845;28;19910;-66
2021/07/27 14:16:40;;;;;;;;;;;28.60;99.90;;;;;;4992736;28;20012;-65
2021/07/27 14:19:06;;;;;;;;;;;28.20;99.90;;;;;;4992093;28;19916;-65
2021/07/27 14:21:31;;;;;;;;;;;27.70;99.90;;;;;;4991015;28;20371;-65
2021/07/27 14:23:57;;;;;;;;;;;27.40;99.90;;;;;;4992604;28;19910;-65
2021/07/27 14:26:23;;;;;;;;;;;27.50;99.90;;;;;;4991176;28;19929;-65
2021/07/27 14:28:48;;;;;;;;;;;27.70;99.90;;;;;;4992330;28;19964;-65
2021/07/27 14:31:14;;;;;;;;;;;27.90;99.90;;;;;;4992158;28;19925;-65
2021/07/27 14:33:40;;;;;;;;;;;28.30;99.90;;;;;;4992288;28;20006;-65
2021/07/27 14:36:05;;;;;;;;;;;28.50;99.90;;;;;;4992165;28;19942;-65
2021/07/27 14:38:31;;;;;;;;;;;28.50;99.90;;;;;;4991933;28;20005;-65
2021/07/27 14:40:57;;;;;;;;;;;27.70;99.90;;;;;;4992313;28;20281;-65
2021/07/27 14:43:22;;;;;;;;;;;27.60;99.90;;;;;;4992110;28;20029;-65